createdAt,value
2023-02-14T00:05:20.151Z,14.02
2023-02-14T00:12:55.590Z,13.33
2023-02-14T00:20:30.018Z,13.25
2023-02-14T00:28:05.320Z,13.25
2023-02-14T00:35:39.422Z,13.13
2023-02-14T00:43:14.677Z,14.83
2023-02-14T00:50:48.575Z,13.65
2023-02-14T00:58:24.079Z,13.63
2023-02-14T01:05:57.997Z,13.65
2023-02-14T01:13:33.455Z,13.77
2023-02-14T01:21:17.339Z,13.43
2023-02-14T01:28:52.969Z,12.18
2023-02-14T01:36:28.376Z,13.80
2023-02-14T01:44:05.693Z,12.90
2023-02-14T01:51:48.538Z,14.20
2023-02-14T01:59:27.903Z,14.15
2023-02-14T02:07:06.937Z,14.20
2023-02-14T02:14:44.244Z,12.73
2023-02-14T02:22:52.996Z,14.65
2023-02-14T02:30:52.510Z,14.10
2023-02-14T02:38:45.063Z,15.00
2023-02-14T02:46:43.097Z,13.52
2023-02-14T02:54:24.711Z,13.20
2023-02-14T03:02:06.461Z,12.32
2023-02-14T03:10:04.407Z,14.25
2023-02-14T03:17:49.747Z,13.25
2023-02-14T03:25:37.047Z,13.73
2023-02-14T03:33:19.585Z,13.50
2023-02-14T03:41:00.083Z,13.05
2023-02-14T03:48:36.061Z,12.60
2023-02-14T03:56:16.910Z,12.45
2023-02-14T04:03:53.632Z,12.20
2023-02-14T04:11:33.583Z,11.85
2023-02-14T04:19:25.674Z,12.70
2023-02-14T04:27:15.287Z,13.00
2023-02-14T04:34:49.533Z,13.48
2023-02-14T04:42:25.385Z,14.20
2023-02-14T04:49:59.552Z,13.30
2023-02-14T04:57:34.944Z,12.93
2023-02-14T05:05:09.278Z,13.80
2023-02-14T05:12:44.705Z,14.65
2023-02-14T05:20:18.904Z,15.35
2023-02-14T05:27:54.673Z,14.60
2023-02-14T05:35:29.048Z,15.40
2023-02-14T05:43:04.426Z,16.70
2023-02-14T05:50:38.340Z,15.55
2023-02-14T05:58:13.895Z,14.73
2023-02-14T06:05:47.736Z,15.45
2023-02-14T06:13:25.036Z,15.37
2023-02-14T06:20:59.286Z,15.75
2023-02-14T06:28:35.272Z,17.02
2023-02-14T06:36:09.528Z,16.58
2023-02-14T06:43:45.810Z,18.20
2023-02-14T06:51:19.816Z,18.15
2023-02-14T06:58:55.134Z,16.47
2023-02-14T07:06:29.023Z,17.17
2023-02-14T07:14:04.392Z,18.80
2023-02-14T07:21:38.211Z,18.08
2023-02-14T07:29:14.517Z,17.53
2023-02-14T07:36:48.586Z,16.15
2023-02-14T07:44:24.136Z,19.33
2023-02-14T07:51:58.061Z,15.80
2023-02-14T07:59:33.287Z,15.73
2023-02-14T08:07:07.181Z,16.15
2023-02-14T08:14:43.019Z,19.60
2023-02-14T08:22:18.334Z,15.65
2023-02-14T08:29:54.683Z,17.45
2023-02-14T08:37:28.585Z,16.33
2023-02-14T08:45:04.375Z,16.17
2023-02-14T08:52:39.665Z,14.13
2023-02-14T09:00:16.428Z,15.75
2023-02-14T09:07:50.790Z,14.77
2023-02-14T09:15:26.089Z,14.25
2023-02-14T09:23:00.099Z,15.32
2023-02-14T09:30:36.624Z,14.40
2023-02-14T09:38:17.818Z,15.32
2023-02-14T09:45:56.657Z,15.27
2023-02-14T09:53:33.533Z,15.05
2023-02-14T10:01:16.632Z,12.68
2023-02-14T10:09:03.714Z,14.25
2023-02-14T10:16:44.221Z,15.60
2023-02-14T10:24:22.258Z,13.07
2023-02-14T10:32:00.457Z,12.63
2023-02-14T10:40:06.337Z,14.05
2023-02-14T10:55:32.433Z,13.77
2023-02-14T11:03:10.957Z,12.20
2023-02-14T11:10:45.118Z,13.55
2023-02-14T11:18:23.926Z,15.33
2023-02-14T11:26:00.316Z,15.02
2023-02-14T11:33:40.553Z,14.38
2023-02-14T11:41:18.224Z,15.82
2023-02-14T11:48:59.167Z,14.73
2023-02-14T11:56:53.855Z,16.13
2023-02-14T12:04:41.393Z,17.27
2023-02-14T12:12:27.649Z,16.15
2023-02-14T12:20:09.911Z,15.77
2023-02-14T12:27:50.429Z,13.85
2023-02-14T12:35:46.601Z,13.25
2023-02-14T12:43:48.144Z,13.68
2023-02-14T12:51:28.400Z,12.80
2023-02-14T12:59:12.892Z,13.77
2023-02-14T13:06:53.612Z,13.20
2023-02-14T13:14:42.975Z,12.60
2023-02-14T13:22:21.510Z,13.15
2023-02-14T13:29:59.864Z,11.95
2023-02-14T13:37:37.039Z,14.25
2023-02-14T13:45:54.117Z,14.05
2023-02-14T13:53:33.693Z,15.27
2023-02-14T14:01:37.101Z,14.85
2023-02-14T14:09:11.888Z,15.48
2023-02-14T14:16:58.132Z,15.18
2023-02-14T14:24:33.142Z,13.07
2023-02-14T14:32:14.412Z,13.70
2023-02-14T14:39:53.192Z,13.90
2023-02-14T14:47:33.019Z,15.25
2023-02-14T14:55:10.356Z,12.23
2023-02-14T15:02:57.116Z,13.90
2023-02-14T15:10:32.153Z,15.82
2023-02-14T15:18:09.418Z,12.70
2023-02-14T15:25:47.015Z,14.38
2023-02-14T15:33:22.644Z,16.05
2023-02-14T15:40:57.683Z,14.38
2023-02-14T15:48:35.056Z,16.35
2023-02-14T15:56:13.531Z,15.60
2023-02-14T16:03:52.375Z,14.23
2023-02-14T16:11:29.763Z,15.80
2023-02-14T16:19:06.516Z,14.32
2023-02-14T16:26:42.196Z,13.52
2023-02-14T16:34:18.304Z,12.00
2023-02-14T16:41:54.592Z,14.50
2023-02-14T16:49:30.182Z,14.13
2023-02-14T16:57:05.295Z,13.18
2023-02-14T17:04:42.004Z,13.27
2023-02-14T17:12:19.798Z,14.68
2023-02-14T17:19:55.712Z,13.85
2023-02-14T17:27:29.537Z,14.63
2023-02-14T17:35:06.130Z,15.93
2023-02-14T17:42:40.236Z,14.25
2023-02-14T17:50:15.943Z,14.23
2023-02-14T17:57:52.524Z,14.70
2023-02-14T18:05:27.786Z,14.32
2023-02-14T18:13:01.852Z,14.30
2023-02-14T18:20:37.156Z,14.93
2023-02-14T18:28:11.019Z,13.43
2023-02-14T18:35:46.813Z,15.33
2023-02-14T18:43:21.057Z,12.88
2023-02-14T18:50:56.256Z,14.17
2023-02-14T18:58:30.040Z,13.82
2023-02-14T19:06:05.731Z,12.43
2023-02-14T19:13:40.002Z,13.38
2023-02-14T19:21:16.964Z,13.43
2023-02-14T19:28:55.932Z,14.73
2023-02-14T19:36:31.716Z,13.13
2023-02-14T19:44:10.001Z,13.55
2023-02-14T19:51:46.762Z,14.35
2023-02-14T19:59:23.480Z,14.75
2023-02-14T20:06:58.940Z,13.35
2023-02-14T20:14:50.381Z,12.25
2023-02-14T20:22:26.502Z,12.95
2023-02-14T20:30:00.672Z,15.32
2023-02-14T20:37:36.346Z,12.73
2023-02-14T20:45:10.213Z,12.30
2023-02-14T20:52:45.807Z,14.10
2023-02-14T21:00:20.629Z,14.38
2023-02-14T21:07:55.876Z,14.13
2023-02-14T21:15:29.851Z,14.10
2023-02-14T21:23:05.420Z,15.27
2023-02-14T21:30:39.278Z,15.48
2023-02-14T21:38:14.504Z,16.57
2023-02-14T21:45:55.220Z,16.38
2023-02-14T21:53:30.443Z,15.55
2023-02-14T22:01:04.342Z,15.10
2023-02-14T22:08:40.170Z,16.03
2023-02-14T22:16:16.972Z,16.88
2023-02-14T22:23:52.473Z,16.38
2023-02-14T22:31:27.449Z,15.20
2023-02-14T22:39:03.888Z,18.13
2023-02-14T22:46:38.127Z,18.23
2023-02-14T22:54:15.912Z,16.75
2023-02-14T23:01:51.196Z,15.95
2023-02-14T23:09:26.675Z,16.55
2023-02-14T23:17:18.234Z,15.18
2023-02-14T23:24:55.150Z,15.68
2023-02-14T23:32:29.532Z,18.38
2023-02-14T23:47:40.000Z,16.10
2023-02-14T23:55:15.244Z,14.73
